sensor_id;sensor_type;location;lat;lon;timestamp;temperature;humidity
18225;DHT22;9237;48.590;8.854;2022-08-04T00:02:24;19.80;99.90
18225;DHT22;9237;48.590;8.854;2022-08-04T00:04:55;19.70;99.90
18225;DHT22;9237;48.590;8.854;2022-08-04T00:07:34;19.70;99.90
18225;DHT22;9237;48.590;8.854;2022-08-04T00:10:05;19.50;99.90
18225;DHT22;9237;48.590;8.854;2022-08-04T00:12:35;19.40;99.90
18225;DHT22;9237;48.590;8.854;2022-08-04T00:15:06;19.30;99.90
18225;DHT22;9237;48.590;8.854;2022-08-04T00:17:39;19.30;99.90
18225;DHT22;9237;48.590;8.854;2022-08-04T00:20:09;19.30;99.90
18225;DHT22;9237;48.590;8.854;2022-08-04T00:22:39;19.30;99.90
18225;DHT22;9237;48.590;8.854;2022-08-04T00:25:07;19.20;99.90
18225;DHT22;9237;48.590;8.854;2022-08-04T00:27:34;19.10;99.90
18225;DHT22;9237;48.590;8.854;2022-08-04T00:30:04;19.10;99.90
18225;DHT22;9237;48.590;8.854;2022-08-04T00:32:32;19.10;99.90
18225;DHT22;9237;48.590;8.854;2022-08-04T00:34:59;19.10;99.90
18225;DHT22;9237;48.590;8.854;2022-08-04T00:37:27;19.10;99.90
18225;DHT22;9237;48.590;8.854;2022-08-04T00:39:54;19.00;99.90
18225;DHT22;9237;48.590;8.854;2022-08-04T00:42:43;19.00;99.90
18225;DHT22;9237;48.590;8.854;2022-08-04T00:45:43;19.00;99.90
18225;DHT22;9237;48.590;8.854;2022-08-04T00:48:24;18.80;99.90
18225;DHT22;9237;48.590;8.854;2022-08-04T00:50:59;18.70;99.90
18225;DHT22;9237;48.590;8.854;2022-08-04T00:53:34;18.60;99.90
18225;DHT22;9237;48.590;8.854;2022-08-04T00:56:21;18.50;99.90
18225;DHT22;9237;48.590;8.854;2022-08-04T00:59:03;18.50;99.90
18225;DHT22;9237;48.590;8.854;2022-08-04T01:01:50;18.40;99.90
18225;DHT22;9237;48.590;8.854;2022-08-04T01:04:26;18.40;99.90
18225;DHT22;9237;48.590;8.854;2022-08-04T01:07:12;18.30;99.90
18225;DHT22;9237;48.590;8.854;2022-08-04T01:09:47;18.20;99.90
18225;DHT22;9237;48.590;8.854;2022-08-04T01:12:35;18.20;99.90
18225;DHT22;9237;48.590;8.854;2022-08-04T01:15:17;18.30;99.90
18225;DHT22;9237;48.590;8.854;2022-08-04T01:18:03;18.30;99.90
18225;DHT22;9237;48.590;8.854;2022-08-04T01:20:33;18.30;99.90
18225;DHT22;9237;48.590;8.854;2022-08-04T01:26:35;18.40;99.90
18225;DHT22;9237;48.590;8.854;2022-08-04T01:29:07;18.40;99.90
18225;DHT22;9237;48.590;8.854;2022-08-04T01:32:00;18.20;99.90
18225;DHT22;9237;48.590;8.854;2022-08-04T01:34:30;18.00;99.90
18225;DHT22;9237;48.590;8.854;2022-08-04T01:37:06;18.00;99.90
18225;DHT22;9237;48.590;8.854;2022-08-04T01:39:48;18.00;99.90
18225;DHT22;9237;48.590;8.854;2022-08-04T01:42:18;17.90;99.90
18225;DHT22;9237;48.590;8.854;2022-08-04T01:44:49;17.90;99.90
18225;DHT22;9237;48.590;8.854;2022-08-04T01:47:20;17.80;99.90
18225;DHT22;9237;48.590;8.854;2022-08-04T01:49:49;17.70;99.90
18225;DHT22;9237;48.590;8.854;2022-08-04T01:52:17;17.70;99.90
18225;DHT22;9237;48.590;8.854;2022-08-04T01:54:45;17.60;99.90
18225;DHT22;9237;48.590;8.854;2022-08-04T01:57:14;17.40;99.90
18225;DHT22;9237;48.590;8.854;2022-08-04T01:59:44;17.50;99.90
18225;DHT22;9237;48.590;8.854;2022-08-04T02:02:14;17.50;99.90
18225;DHT22;9237;48.590;8.854;2022-08-04T02:04:41;17.50;99.90
18225;DHT22;9237;48.590;8.854;2022-08-04T02:07:27;17.50;99.90
18225;DHT22;9237;48.590;8.854;2022-08-04T02:10:04;17.50;99.90
18225;DHT22;9237;48.590;8.854;2022-08-04T02:12:47;17.50;99.90
18225;DHT22;9237;48.590;8.854;2022-08-04T02:15:26;17.40;99.90
18225;DHT22;9237;48.590;8.854;2022-08-04T02:17:59;17.30;99.90
18225;DHT22;9237;48.590;8.854;2022-08-04T02:20:31;17.20;99.90
18225;DHT22;9237;48.590;8.854;2022-08-04T02:23:00;17.20;99.90
18225;DHT22;9237;48.590;8.854;2022-08-04T02:25:33;17.20;99.90
18225;DHT22;9237;48.590;8.854;2022-08-04T02:28:18;17.10;99.90
18225;DHT22;9237;48.590;8.854;2022-08-04T02:30:54;17.20;99.90
18225;DHT22;9237;48.590;8.854;2022-08-04T02:33:30;17.20;99.90
18225;DHT22;9237;48.590;8.854;2022-08-04T02:36:03;17.30;99.90
18225;DHT22;9237;48.590;8.854;2022-08-04T02:38:58;17.20;99.90
18225;DHT22;9237;48.590;8.854;2022-08-04T02:41:27;17.20;99.90
18225;DHT22;9237;48.590;8.854;2022-08-04T02:43:56;17.10;99.90
18225;DHT22;9237;48.590;8.854;2022-08-04T02:46:23;17.10;99.90
18225;DHT22;9237;48.590;8.854;2022-08-04T02:48:52;17.20;99.90
18225;DHT22;9237;48.590;8.854;2022-08-04T02:51:23;17.20;99.90
18225;DHT22;9237;48.590;8.854;2022-08-04T02:53:53;17.10;99.90
18225;DHT22;9237;48.590;8.854;2022-08-04T02:56:21;17.10;99.90
18225;DHT22;9237;48.590;8.854;2022-08-04T02:58:52;17.00;99.90
18225;DHT22;9237;48.590;8.854;2022-08-04T03:01:20;17.00;99.90
18225;DHT22;9237;48.590;8.854;2022-08-04T03:04:00;17.00;99.90
18225;DHT22;9237;48.590;8.854;2022-08-04T03:10:00;16.90;99.90
18225;DHT22;9237;48.590;8.854;2022-08-04T03:15:59;16.80;99.90
18225;DHT22;9237;48.590;8.854;2022-08-04T03:28:04;16.70;99.90
18225;DHT22;9237;48.590;8.854;2022-08-04T03:30:44;16.60;99.90
18225;DHT22;9237;48.590;8.854;2022-08-04T03:33:30;16.50;99.90
18225;DHT22;9237;48.590;8.854;2022-08-04T03:36:37;16.50;99.90
18225;DHT22;9237;48.590;8.854;2022-08-04T03:39:30;16.50;99.90
18225;DHT22;9237;48.590;8.854;2022-08-04T03:42:26;16.50;99.90
18225;DHT22;9237;48.590;8.854;2022-08-04T03:48:27;16.40;99.90
18225;DHT22;9237;48.590;8.854;2022-08-04T03:51:05;16.30;99.90
18225;DHT22;9237;48.590;8.854;2022-08-04T03:54:31;16.20;99.90
18225;DHT22;9237;48.590;8.854;2022-08-04T03:57:37;16.20;99.90
18225;DHT22;9237;48.590;8.854;2022-08-04T04:00:08;16.20;99.90
18225;DHT22;9237;48.590;8.854;2022-08-04T04:06:32;16.40;99.90
18225;DHT22;9237;48.590;8.854;2022-08-04T04:09:38;16.40;99.90
18225;DHT22;9237;48.590;8.854;2022-08-04T04:15:46;16.40;99.90
18225;DHT22;9237;48.590;8.854;2022-08-04T04:18:28;16.40;99.90
18225;DHT22;9237;48.590;8.854;2022-08-04T04:21:26;16.50;99.90
18225;DHT22;9237;48.590;8.854;2022-08-04T04:24:10;16.40;99.90
18225;DHT22;9237;48.590;8.854;2022-08-04T04:26:56;16.40;99.90
18225;DHT22;9237;48.590;8.854;2022-08-04T04:29:37;16.30;99.90
18225;DHT22;9237;48.590;8.854;2022-08-04T04:32:20;16.30;99.90
18225;DHT22;9237;48.590;8.854;2022-08-04T04:34:57;16.30;99.90
18225;DHT22;9237;48.590;8.854;2022-08-04T04:37:40;16.30;99.90
18225;DHT22;9237;48.590;8.854;2022-08-04T04:40:27;16.20;99.90
18225;DHT22;9237;48.590;8.854;2022-08-04T04:43:12;16.30;99.90
18225;DHT22;9237;48.590;8.854;2022-08-04T04:45:50;16.30;99.90
18225;DHT22;9237;48.590;8.854;2022-08-04T04:48:28;16.40;99.90
18225;DHT22;9237;48.590;8.854;2022-08-04T04:51:07;16.50;99.90
18225;DHT22;9237;48.590;8.854;2022-08-04T04:53:44;16.60;99.90
18225;DHT22;9237;48.590;8.854;2022-08-04T04:56:18;16.80;99.90
18225;DHT22;9237;48.590;8.854;2022-08-04T04:58:52;16.80;99.90
18225;DHT22;9237;48.590;8.854;2022-08-04T05:01:36;17.40;99.90
18225;DHT22;9237;48.590;8.854;2022-08-04T05:04:19;17.80;99.90
18225;DHT22;9237;48.590;8.854;2022-08-04T05:07:05;18.10;99.90
18225;DHT22;9237;48.590;8.854;2022-08-04T05:09:49;18.20;99.90
18225;DHT22;9237;48.590;8.854;2022-08-04T05:15:26;18.20;99.90
18225;DHT22;9237;48.590;8.854;2022-08-04T05:17:56;18.30;99.90
18225;DHT22;9237;48.590;8.854;2022-08-04T05:20:28;18.40;99.90
18225;DHT22;9237;48.590;8.854;2022-08-04T05:22:58;18.50;99.90
18225;DHT22;9237;48.590;8.854;2022-08-04T05:25:32;18.80;99.90
18225;DHT22;9237;48.590;8.854;2022-08-04T05:28:04;19.00;99.90
18225;DHT22;9237;48.590;8.854;2022-08-04T05:30:37;19.20;99.90
18225;DHT22;9237;48.590;8.854;2022-08-04T05:33:14;19.60;99.90
18225;DHT22;9237;48.590;8.854;2022-08-04T05:35:45;20.10;99.90
18225;DHT22;9237;48.590;8.854;2022-08-04T05:38:16;20.70;99.90
18225;DHT22;9237;48.590;8.854;2022-08-04T05:40:44;21.10;99.90
18225;DHT22;9237;48.590;8.854;2022-08-04T05:43:12;21.50;99.90
18225;DHT22;9237;48.590;8.854;2022-08-04T05:45:41;22.00;99.90
18225;DHT22;9237;48.590;8.854;2022-08-04T05:48:13;22.40;99.90
18225;DHT22;9237;48.590;8.854;2022-08-04T05:50:40;22.60;99.90
18225;DHT22;9237;48.590;8.854;2022-08-04T05:53:08;23.00;99.90
18225;DHT22;9237;48.590;8.854;2022-08-04T05:55:36;23.10;99.90
18225;DHT22;9237;48.590;8.854;2022-08-04T05:58:03;23.40;99.90
18225;DHT22;9237;48.590;8.854;2022-08-04T06:00:30;23.60;99.90
18225;DHT22;9237;48.590;8.854;2022-08-04T06:03:01;23.60;99.90
18225;DHT22;9237;48.590;8.854;2022-08-04T06:05:28;23.60;99.90
18225;DHT22;9237;48.590;8.854;2022-08-04T06:07:55;23.90;99.90
18225;DHT22;9237;48.590;8.854;2022-08-04T06:10:23;24.10;99.90
18225;DHT22;9237;48.590;8.854;2022-08-04T06:12:54;23.80;99.90
18225;DHT22;9237;48.590;8.854;2022-08-04T06:15:25;23.70;99.90
18225;DHT22;9237;48.590;8.854;2022-08-04T06:17:56;23.70;99.90
18225;DHT22;9237;48.590;8.854;2022-08-04T06:20:29;23.60;99.90
18225;DHT22;9237;48.590;8.854;2022-08-04T06:22:59;23.80;99.90
18225;DHT22;9237;48.590;8.854;2022-08-04T06:25:30;24.00;99.90
18225;DHT22;9237;48.590;8.854;2022-08-04T06:27:58;24.10;99.90
18225;DHT22;9237;48.590;8.854;2022-08-04T06:30:27;24.20;99.90
18225;DHT22;9237;48.590;8.854;2022-08-04T06:32:56;24.20;99.90
18225;DHT22;9237;48.590;8.854;2022-08-04T06:35:27;24.30;99.90
18225;DHT22;9237;48.590;8.854;2022-08-04T06:37:56;24.50;99.90
18225;DHT22;9237;48.590;8.854;2022-08-04T06:40:24;24.60;99.90
18225;DHT22;9237;48.590;8.854;2022-08-04T06:42:53;24.70;99.90
18225;DHT22;9237;48.590;8.854;2022-08-04T06:45:22;24.90;99.90
18225;DHT22;9237;48.590;8.854;2022-08-04T06:47:50;25.10;99.90
18225;DHT22;9237;48.590;8.854;2022-08-04T06:50:18;25.30;99.90
18225;DHT22;9237;48.590;8.854;2022-08-04T06:52:46;25.60;99.90
18225;DHT22;9237;48.590;8.854;2022-08-04T06:55:13;25.80;99.70
18225;DHT22;9237;48.590;8.854;2022-08-04T06:57:40;26.20;99.20
18225;DHT22;9237;48.590;8.854;2022-08-04T07:00:10;26.40;98.40
18225;DHT22;9237;48.590;8.854;2022-08-04T07:02:41;26.50;98.50
18225;DHT22;9237;48.590;8.854;2022-08-04T07:05:09;26.80;97.30
18225;DHT22;9237;48.590;8.854;2022-08-04T07:07:38;27.00;96.70
18225;DHT22;9237;48.590;8.854;2022-08-04T07:10:08;27.10;97.00
18225;DHT22;9237;48.590;8.854;2022-08-04T07:12:36;27.40;96.50
18225;DHT22;9237;48.590;8.854;2022-08-04T07:15:04;27.70;95.60
18225;DHT22;9237;48.590;8.854;2022-08-04T07:17:33;28.00;95.10
18225;DHT22;9237;48.590;8.854;2022-08-04T07:20:01;28.10;94.20
18225;DHT22;9237;48.590;8.854;2022-08-04T07:22:28;28.50;94.20
18225;DHT22;9237;48.590;8.854;2022-08-04T07:24:57;28.70;93.00
18225;DHT22;9237;48.590;8.854;2022-08-04T07:27:25;29.10;91.90
18225;DHT22;9237;48.590;8.854;2022-08-04T07:29:52;29.30;91.40
18225;DHT22;9237;48.590;8.854;2022-08-04T07:32:20;29.40;89.90
18225;DHT22;9237;48.590;8.854;2022-08-04T07:34:48;29.70;89.30
18225;DHT22;9237;48.590;8.854;2022-08-04T07:37:16;30.00;88.00
18225;DHT22;9237;48.590;8.854;2022-08-04T07:39:43;30.30;86.20
18225;DHT22;9237;48.590;8.854;2022-08-04T07:42:10;30.30;83.60
18225;DHT22;9237;48.590;8.854;2022-08-04T07:44:39;30.50;81.90
18225;DHT22;9237;48.590;8.854;2022-08-04T07:47:06;30.80;81.80
18225;DHT22;9237;48.590;8.854;2022-08-04T07:49:34;30.90;81.20
18225;DHT22;9237;48.590;8.854;2022-08-04T07:52:01;31.00;79.90
18225;DHT22;9237;48.590;8.854;2022-08-04T07:54:29;31.20;78.60
18225;DHT22;9237;48.590;8.854;2022-08-04T07:56:56;31.50;76.50
18225;DHT22;9237;48.590;8.854;2022-08-04T07:59:23;31.60;76.40
18225;DHT22;9237;48.590;8.854;2022-08-04T08:01:52;31.80;76.40
18225;DHT22;9237;48.590;8.854;2022-08-04T08:04:20;32.10;75.20
18225;DHT22;9237;48.590;8.854;2022-08-04T08:06:47;32.50;72.10
18225;DHT22;9237;48.590;8.854;2022-08-04T08:09:16;32.70;72.00
18225;DHT22;9237;48.590;8.854;2022-08-04T08:11:46;32.70;69.10
18225;DHT22;9237;48.590;8.854;2022-08-04T08:14:14;32.80;69.70
18225;DHT22;9237;48.590;8.854;2022-08-04T08:16:41;32.80;69.20
18225;DHT22;9237;48.590;8.854;2022-08-04T08:19:10;33.10;69.70
18225;DHT22;9237;48.590;8.854;2022-08-04T08:21:37;33.50;67.40
18225;DHT22;9237;48.590;8.854;2022-08-04T08:24:04;33.40;66.50
18225;DHT22;9237;48.590;8.854;2022-08-04T08:26:32;33.50;64.80
18225;DHT22;9237;48.590;8.854;2022-08-04T08:29:01;33.40;65.00
18225;DHT22;9237;48.590;8.854;2022-08-04T08:31:28;33.40;65.00
18225;DHT22;9237;48.590;8.854;2022-08-04T08:33:55;33.70;64.60
18225;DHT22;9237;48.590;8.854;2022-08-04T08:36:28;33.90;62.50
18225;DHT22;9237;48.590;8.854;2022-08-04T08:39:01;34.30;63.70
18225;DHT22;9237;48.590;8.854;2022-08-04T08:42:01;34.70;61.60
18225;DHT22;9237;48.590;8.854;2022-08-04T08:47:54;34.20;61.40
18225;DHT22;9237;48.590;8.854;2022-08-04T08:51:04;34.90;61.80
18225;DHT22;9237;48.590;8.854;2022-08-04T08:53:58;35.30;59.50
18225;DHT22;9237;48.590;8.854;2022-08-04T08:56:35;35.40;57.80
18225;DHT22;9237;48.590;8.854;2022-08-04T08:59:34;35.50;59.10
18225;DHT22;9237;48.590;8.854;2022-08-04T09:05:16;35.90;57.10
18225;DHT22;9237;48.590;8.854;2022-08-04T09:08:04;35.90;57.70
18225;DHT22;9237;48.590;8.854;2022-08-04T09:10:41;36.20;55.90
18225;DHT22;9237;48.590;8.854;2022-08-04T09:13:15;36.00;55.40
18225;DHT22;9237;48.590;8.854;2022-08-04T09:15:48;36.20;55.10
18225;DHT22;9237;48.590;8.854;2022-08-04T09:18:21;35.80;55.60
18225;DHT22;9237;48.590;8.854;2022-08-04T09:20:53;36.40;55.60
18225;DHT22;9237;48.590;8.854;2022-08-04T09:23:27;36.70;53.90
18225;DHT22;9237;48.590;8.854;2022-08-04T09:26:00;36.80;55.10
18225;DHT22;9237;48.590;8.854;2022-08-04T09:28:36;37.50;52.70
18225;DHT22;9237;48.590;8.854;2022-08-04T09:31:08;37.90;52.00
18225;DHT22;9237;48.590;8.854;2022-08-04T09:33:43;38.10;51.30
18225;DHT22;9237;48.590;8.854;2022-08-04T09:36:21;38.30;50.90
18225;DHT22;9237;48.590;8.854;2022-08-04T09:39:02;38.10;50.60
18225;DHT22;9237;48.590;8.854;2022-08-04T09:41:37;38.50;49.20
18225;DHT22;9237;48.590;8.854;2022-08-04T09:44:18;38.80;49.60
18225;DHT22;9237;48.590;8.854;2022-08-04T09:46:52;39.00;48.00
18225;DHT22;9237;48.590;8.854;2022-08-04T09:49:30;39.10;49.50
18225;DHT22;9237;48.590;8.854;2022-08-04T09:52:05;39.10;45.90
18225;DHT22;9237;48.590;8.854;2022-08-04T09:54:46;38.40;46.10
18225;DHT22;9237;48.590;8.854;2022-08-04T09:57:38;37.20;48.00
18225;DHT22;9237;48.590;8.854;2022-08-04T10:00:08;38.20;48.20
18225;DHT22;9237;48.590;8.854;2022-08-04T10:02:40;38.60;42.70
18225;DHT22;9237;48.590;8.854;2022-08-04T10:05:13;38.80;44.00
18225;DHT22;9237;48.590;8.854;2022-08-04T10:08:01;39.30;42.20
18225;DHT22;9237;48.590;8.854;2022-08-04T10:10:33;39.90;42.30
18225;DHT22;9237;48.590;8.854;2022-08-04T10:13:28;40.10;41.80
18225;DHT22;9237;48.590;8.854;2022-08-04T10:16:13;39.50;39.70
18225;DHT22;9237;48.590;8.854;2022-08-04T10:18:54;38.80;39.40
18225;DHT22;9237;48.590;8.854;2022-08-04T10:21:30;39.40;40.40
18225;DHT22;9237;48.590;8.854;2022-08-04T10:24:12;38.90;38.10
18225;DHT22;9237;48.590;8.854;2022-08-04T10:27:00;38.80;39.80
18225;DHT22;9237;48.590;8.854;2022-08-04T10:29:42;39.30;40.20
18225;DHT22;9237;48.590;8.854;2022-08-04T10:32:17;40.30;39.10
18225;DHT22;9237;48.590;8.854;2022-08-04T10:35:00;39.20;37.90
18225;DHT22;9237;48.590;8.854;2022-08-04T10:37:31;38.80;39.40
18225;DHT22;9237;48.590;8.854;2022-08-04T10:40:04;39.60;39.60
18225;DHT22;9237;48.590;8.854;2022-08-04T10:42:57;39.10;39.70
18225;DHT22;9237;48.590;8.854;2022-08-04T10:45:35;39.70;39.30
18225;DHT22;9237;48.590;8.854;2022-08-04T10:48:14;39.40;39.90
18225;DHT22;9237;48.590;8.854;2022-08-04T10:51:01;40.50;38.30
18225;DHT22;9237;48.590;8.854;2022-08-04T10:53:34;38.40;39.40
18225;DHT22;9237;48.590;8.854;2022-08-04T10:56:13;39.30;39.90
18225;DHT22;9237;48.590;8.854;2022-08-04T10:58:53;40.20;39.90
18225;DHT22;9237;48.590;8.854;2022-08-04T11:01:45;40.20;38.20
18225;DHT22;9237;48.590;8.854;2022-08-04T11:04:22;39.60;38.90
18225;DHT22;9237;48.590;8.854;2022-08-04T11:06:51;40.60;39.30
18225;DHT22;9237;48.590;8.854;2022-08-04T11:09:19;41.50;38.70
18225;DHT22;9237;48.590;8.854;2022-08-04T11:11:52;40.40;38.40
18225;DHT22;9237;48.590;8.854;2022-08-04T11:14:22;40.40;38.40
18225;DHT22;9237;48.590;8.854;2022-08-04T11:16:53;41.00;39.10
18225;DHT22;9237;48.590;8.854;2022-08-04T11:19:29;41.20;37.80
18225;DHT22;9237;48.590;8.854;2022-08-04T11:21:59;40.10;38.20
18225;DHT22;9237;48.590;8.854;2022-08-04T11:24:35;40.20;38.30
18225;DHT22;9237;48.590;8.854;2022-08-04T11:27:05;41.00;38.20
18225;DHT22;9237;48.590;8.854;2022-08-04T11:29:40;41.60;37.10
18225;DHT22;9237;48.590;8.854;2022-08-04T11:32:19;42.20;36.70
18225;DHT22;9237;48.590;8.854;2022-08-04T11:34:48;42.00;35.70
18225;DHT22;9237;48.590;8.854;2022-08-04T11:37:22;41.10;36.00
18225;DHT22;9237;48.590;8.854;2022-08-04T11:39:56;40.80;37.20
18225;DHT22;9237;48.590;8.854;2022-08-04T11:42:26;41.40;36.50
18225;DHT22;9237;48.590;8.854;2022-08-04T11:44:58;41.70;36.40
18225;DHT22;9237;48.590;8.854;2022-08-04T11:47:28;42.40;35.70
18225;DHT22;9237;48.590;8.854;2022-08-04T11:50:02;43.00;35.20
18225;DHT22;9237;48.590;8.854;2022-08-04T11:52:31;41.20;35.30
18225;DHT22;9237;48.590;8.854;2022-08-04T11:55:03;41.40;35.30
18225;DHT22;9237;48.590;8.854;2022-08-04T11:57:31;40.70;36.40
18225;DHT22;9237;48.590;8.854;2022-08-04T11:59:58;39.80;38.10
18225;DHT22;9237;48.590;8.854;2022-08-04T12:02:49;40.40;38.50
18225;DHT22;9237;48.590;8.854;2022-08-04T12:05:27;41.10;37.20
18225;DHT22;9237;48.590;8.854;2022-08-04T12:08:02;40.80;36.70
18225;DHT22;9237;48.590;8.854;2022-08-04T12:10:40;39.10;38.40
18225;DHT22;9237;48.590;8.854;2022-08-04T12:13:14;38.80;39.90
18225;DHT22;9237;48.590;8.854;2022-08-04T12:16:00;37.90;40.40
18225;DHT22;9237;48.590;8.854;2022-08-04T12:18:36;36.90;41.00
18225;DHT22;9237;48.590;8.854;2022-08-04T12:21:11;36.10;41.90
18225;DHT22;9237;48.590;8.854;2022-08-04T12:23:41;35.30;43.00
18225;DHT22;9237;48.590;8.854;2022-08-04T12:26:14;35.10;43.90
18225;DHT22;9237;48.590;8.854;2022-08-04T12:28:46;35.00;44.10
18225;DHT22;9237;48.590;8.854;2022-08-04T12:31:18;34.90;43.90
18225;DHT22;9237;48.590;8.854;2022-08-04T12:33:52;36.00;43.00
18225;DHT22;9237;48.590;8.854;2022-08-04T12:36:24;37.70;41.00
18225;DHT22;9237;48.590;8.854;2022-08-04T12:38:58;38.40;39.90
18225;DHT22;9237;48.590;8.854;2022-08-04T12:41:31;39.10;38.70
18225;DHT22;9237;48.590;8.854;2022-08-04T12:44:04;39.00;38.30
18225;DHT22;9237;48.590;8.854;2022-08-04T12:46:32;40.30;37.80
18225;DHT22;9237;48.590;8.854;2022-08-04T12:49:02;40.10;37.00
18225;DHT22;9237;48.590;8.854;2022-08-04T12:51:36;40.70;36.80
18225;DHT22;9237;48.590;8.854;2022-08-04T12:54:05;39.00;37.60
18225;DHT22;9237;48.590;8.854;2022-08-04T12:56:32;38.20;38.90
18225;DHT22;9237;48.590;8.854;2022-08-04T12:59:02;38.70;38.30
18225;DHT22;9237;48.590;8.854;2022-08-04T13:01:29;38.80;38.00
18225;DHT22;9237;48.590;8.854;2022-08-04T13:03:58;39.60;37.80
18225;DHT22;9237;48.590;8.854;2022-08-04T13:06:30;39.70;37.60
18225;DHT22;9237;48.590;8.854;2022-08-04T13:09:03;38.90;38.60
18225;DHT22;9237;48.590;8.854;2022-08-04T13:11:34;39.40;38.80
18225;DHT22;9237;48.590;8.854;2022-08-04T13:14:02;41.20;36.40
18225;DHT22;9237;48.590;8.854;2022-08-04T13:16:31;41.80;34.30
18225;DHT22;9237;48.590;8.854;2022-08-04T13:18:59;43.40;33.80
18225;DHT22;9237;48.590;8.854;2022-08-04T13:21:29;43.00;33.20
18225;DHT22;9237;48.590;8.854;2022-08-04T13:24:01;43.90;32.00
18225;DHT22;9237;48.590;8.854;2022-08-04T13:26:29;44.20;32.70
18225;DHT22;9237;48.590;8.854;2022-08-04T13:29:02;44.60;32.10
18225;DHT22;9237;48.590;8.854;2022-08-04T13:31:31;44.60;32.30
18225;DHT22;9237;48.590;8.854;2022-08-04T13:34:05;44.70;32.00
18225;DHT22;9237;48.590;8.854;2022-08-04T13:36:35;43.90;31.60
18225;DHT22;9237;48.590;8.854;2022-08-04T13:39:06;43.60;31.90
18225;DHT22;9237;48.590;8.854;2022-08-04T13:41:35;43.60;32.80
18225;DHT22;9237;48.590;8.854;2022-08-04T13:44:06;44.50;31.70
18225;DHT22;9237;48.590;8.854;2022-08-04T13:46:39;44.90;30.40
18225;DHT22;9237;48.590;8.854;2022-08-04T13:49:09;44.30;32.00
18225;DHT22;9237;48.590;8.854;2022-08-04T13:51:40;44.00;31.50
18225;DHT22;9237;48.590;8.854;2022-08-04T13:54:08;43.30;31.20
18225;DHT22;9237;48.590;8.854;2022-08-04T13:56:38;43.30;33.00
18225;DHT22;9237;48.590;8.854;2022-08-04T13:59:09;44.30;31.70
18225;DHT22;9237;48.590;8.854;2022-08-04T14:01:40;44.00;30.40
18225;DHT22;9237;48.590;8.854;2022-08-04T14:04:12;44.70;31.00
18225;DHT22;9237;48.590;8.854;2022-08-04T14:06:49;45.50;30.20
18225;DHT22;9237;48.590;8.854;2022-08-04T14:09:19;45.20;29.60
18225;DHT22;9237;48.590;8.854;2022-08-04T14:11:48;43.90;31.20
18225;DHT22;9237;48.590;8.854;2022-08-04T14:14:17;42.50;32.10
18225;DHT22;9237;48.590;8.854;2022-08-04T14:16:56;41.30;33.90
18225;DHT22;9237;48.590;8.854;2022-08-04T14:19:23;39.90;35.30
18225;DHT22;9237;48.590;8.854;2022-08-04T14:21:51;40.00;36.50
18225;DHT22;9237;48.590;8.854;2022-08-04T14:24:26;40.60;35.00
18225;DHT22;9237;48.590;8.854;2022-08-04T14:26:58;41.60;34.30
18225;DHT22;9237;48.590;8.854;2022-08-04T14:29:25;41.10;34.70
18225;DHT22;9237;48.590;8.854;2022-08-04T14:32:02;42.00;34.20
18225;DHT22;9237;48.590;8.854;2022-08-04T14:34:29;41.20;34.10
18225;DHT22;9237;48.590;8.854;2022-08-04T14:37:06;40.40;35.20
18225;DHT22;9237;48.590;8.854;2022-08-04T14:39:37;38.50;37.50
18225;DHT22;9237;48.590;8.854;2022-08-04T14:42:05;37.30;38.90
18225;DHT22;9237;48.590;8.854;2022-08-04T14:44:51;37.10;39.00
18225;DHT22;9237;48.590;8.854;2022-08-04T14:47:22;36.30;40.10
18225;DHT22;9237;48.590;8.854;2022-08-04T14:49:54;36.00;41.00
18225;DHT22;9237;48.590;8.854;2022-08-04T14:52:25;37.50;39.00
18225;DHT22;9237;48.590;8.854;2022-08-04T14:54:52;39.40;36.70
18225;DHT22;9237;48.590;8.854;2022-08-04T14:57:19;39.90;35.20
18225;DHT22;9237;48.590;8.854;2022-08-04T14:59:47;40.60;35.30
18225;DHT22;9237;48.590;8.854;2022-08-04T15:02:15;40.20;35.80
18225;DHT22;9237;48.590;8.854;2022-08-04T15:04:42;39.20;36.70
18225;DHT22;9237;48.590;8.854;2022-08-04T15:07:10;38.20;37.60
18225;DHT22;9237;48.590;8.854;2022-08-04T15:09:40;38.80;38.10
18225;DHT22;9237;48.590;8.854;2022-08-04T15:12:09;39.50;36.70
18225;DHT22;9237;48.590;8.854;2022-08-04T15:14:36;40.40;36.10
18225;DHT22;9237;48.590;8.854;2022-08-04T15:17:04;41.30;34.80
18225;DHT22;9237;48.590;8.854;2022-08-04T15:19:31;41.30;34.30
18225;DHT22;9237;48.590;8.854;2022-08-04T15:21:58;40.70;34.60
18225;DHT22;9237;48.590;8.854;2022-08-04T15:24:25;39.70;35.40
18225;DHT22;9237;48.590;8.854;2022-08-04T15:26:56;39.80;35.90
18225;DHT22;9237;48.590;8.854;2022-08-04T15:29:29;39.80;35.70
18225;DHT22;9237;48.590;8.854;2022-08-04T15:32:02;38.70;37.40
18225;DHT22;9237;48.590;8.854;2022-08-04T15:34:43;38.20;37.80
18225;DHT22;9237;48.590;8.854;2022-08-04T15:37:12;38.30;38.50
18225;DHT22;9237;48.590;8.854;2022-08-04T15:39:44;37.80;38.90
18225;DHT22;9237;48.590;8.854;2022-08-04T15:42:20;38.10;39.60
18225;DHT22;9237;48.590;8.854;2022-08-04T15:48:21;38.50;38.40
18225;DHT22;9237;48.590;8.854;2022-08-04T15:51:08;38.20;38.50
18225;DHT22;9237;48.590;8.854;2022-08-04T15:56:45;38.90;37.10
18225;DHT22;9237;48.590;8.854;2022-08-04T15:59:14;39.00;36.70
18225;DHT22;9237;48.590;8.854;2022-08-04T16:01:41;38.50;37.30
18225;DHT22;9237;48.590;8.854;2022-08-04T16:04:22;38.30;37.50
18225;DHT22;9237;48.590;8.854;2022-08-04T16:06:50;38.20;38.00
18225;DHT22;9237;48.590;8.854;2022-08-04T16:09:23;38.10;38.00
18225;DHT22;9237;48.590;8.854;2022-08-04T16:11:50;37.70;38.60
18225;DHT22;9237;48.590;8.854;2022-08-04T16:14:29;37.70;38.30
18225;DHT22;9237;48.590;8.854;2022-08-04T16:17:16;38.10;38.50
18225;DHT22;9237;48.590;8.854;2022-08-04T16:20:02;38.30;39.00
18225;DHT22;9237;48.590;8.854;2022-08-04T16:22:37;38.30;37.60
18225;DHT22;9237;48.590;8.854;2022-08-04T16:25:06;38.00;37.80
18225;DHT22;9237;48.590;8.854;2022-08-04T16:27:41;38.20;38.40
18225;DHT22;9237;48.590;8.854;2022-08-04T16:30:11;38.00;38.10
18225;DHT22;9237;48.590;8.854;2022-08-04T16:32:42;37.90;38.40
18225;DHT22;9237;48.590;8.854;2022-08-04T16:35:22;37.90;38.00
18225;DHT22;9237;48.590;8.854;2022-08-04T16:37:53;38.00;37.80
18225;DHT22;9237;48.590;8.854;2022-08-04T16:40:32;37.90;37.50
18225;DHT22;9237;48.590;8.854;2022-08-04T16:43:05;38.10;38.00
18225;DHT22;9237;48.590;8.854;2022-08-04T16:45:41;38.10;38.30
18225;DHT22;9237;48.590;8.854;2022-08-04T16:48:10;37.90;38.00
18225;DHT22;9237;48.590;8.854;2022-08-04T16:50:51;37.80;38.30
18225;DHT22;9237;48.590;8.854;2022-08-04T16:53:21;38.10;39.30
18225;DHT22;9237;48.590;8.854;2022-08-04T16:55:50;38.20;38.60
18225;DHT22;9237;48.590;8.854;2022-08-04T16:58:24;38.20;38.90
18225;DHT22;9237;48.590;8.854;2022-08-04T17:00:53;37.90;37.90
18225;DHT22;9237;48.590;8.854;2022-08-04T17:03:20;37.80;38.00
18225;DHT22;9237;48.590;8.854;2022-08-04T17:05:48;37.90;38.80
18225;DHT22;9237;48.590;8.854;2022-08-04T17:08:15;37.90;38.50
18225;DHT22;9237;48.590;8.854;2022-08-04T17:10:46;37.70;38.20
18225;DHT22;9237;48.590;8.854;2022-08-04T17:13:24;37.50;38.60
18225;DHT22;9237;48.590;8.854;2022-08-04T17:15:55;37.70;40.40